Aérodrome :
LOGIN :

S'inscrire | Disclaimer

   EN    FR    IT 

 










Légende :    VFR   VFR Marginal   IFR   IFR Intensif   IFR Très Intensif
Visi : 
Plafond : 
>= 8 km
>= 3000ft
5 à 8 km
1000 à 3000 ft
1500m à 5 km
500 à 1000 ft
800 à 1500m
200 à 500 ft
< 800m
< 200 ft
Symboles :   Orages  Brouillard  Fortes neiges  Fortes précipitations  Vent > 20 kt
SIGMETs :   Divers  Orages  Givrage  Turbulence  Onde Orograph.  Cendres Volcan.






- Altitude de l'aérodrome : 870 ft
- Code IATA : ETZ


LFJL - Metz Nancy Lorraine

DERNIER METAR :
  • 171830Z AUTO 23012KT CAVOK 06/05 Q1021 NOSIG

METARs EXPIRÉS :
  • 171800Z AUTO 22010KT CAVOK 06/05 Q1020 NOSIG
  • 171730Z AUTO 22012KT 9999 FEW022 SCT150 OVC180 07/06 Q1020 NOSIG
  • 171700Z AUTO 23010KT 9999 BKN020 BKN160 OVC190 07/06 Q1020 TEMPO 4000 SHRA FEW020TCU
  • 171630Z AUTO 23010KT 9999 FEW020 OVC200 07/06 Q1019 TEMPO 4000 SHRA FEW020TCU
  • 171600Z AUTO 24011KT 9999 FEW016 OVC190 08/06 Q1019 TEMPO 4000 SHRA FEW020TCU
  • 171530Z AUTO 23012KT 9999 FEW016 BKN050 BKN190 08/07 Q1019 TEMPO 4000 SHRA FEW020TCU

TAF TAF LFJL
Valide du 17 à 18h jusqu'au 18 à 18h UTC


171700Z 1718/1818 25008KT 9999 BKN030
BECMG 1803/1805 BKN018
TEMPO 1805/1815 -RA BKN010



MET'MAP, la Météo Aéronautique d'un coup d'oeil ! - Copyright ORBIFLY Décembre 2007 - Disclaimer

ORBIFLY MET'MAP TEAM :

Programmation & Développement : Alexandra Zaïnal
Sur une idée originale de : Baudouin d'Aumeries
Assistance à la programmation : Marc-Olivier Méhu
Soutien technique & logistique : Manuel Goepfert

Contact : metmap@orbifly.com




SOURCES & CREDITS :

   NOAA